LBBG

Burgas Airport

Burgas, Bulgaria
TAF LBBG 251700Z 2518/2618 01012KT CAVOK TEMPO 2522/2610 03018G30KT
Issued Valid From Valid To
Sep-25 @ 17:00 UTC
(54 minutes ago)
Sep-25 @ 18:00 UTC
(in 6 minutes)
Sep-26 @ 18:00 UTC
(in 24 hours)
Sep-25 @ 18:00 to Sep-26 @ 18:00
TAF LBBG 251700Z 2518/2618 01012KT CAVOK
Wind Visibility Clouds Conditions
10° at 12 knots 10,000+ meters
  • No significant clouds
Temporary Sep-25 @ 22:00 to Sep-26 @ 10:00
TEMPO 2522/2610 03018G30KT
Wind
30° at 18 knots
 Gusting to 30 knots
TAF LBBG 251700Z 2518/2618 01012KT CAVOK TEMPO 2522/2610 03018G30KT
Issued Sep-25 @ 17:00 UTC
(54 minutes ago)
Valid From Sep-25 @ 18:00 UTC
(in 6 minutes)
Valid To Sep-26 @ 18:00 UTC
(in 24 hours)
Sep-25 @ 18:00 - Sep-26 @ 18:00
Wind Visibility
10° at 12 knots 10,000+ meters
Clouds
  • No significant clouds
Conditions
Temporary Sep-25 @ 22:00 - Sep-26 @ 10:00
Wind
30° at 18 knots
 Gusting to 30 knots